MXB7QM LIEO-EDDM
Flight info
| Callsign | MXB7QM |
|---|---|
| Flight time | 1h 15m |
| Altitude | 36000 |
| Route | BATOX DCT DEDOM DCT ELB DCT BETMU DCT ADOSA DCT GUNGO DCT SOTOV/N0388F240 T101 BETOS BETOS1B |
| Aircraft | A320/M-SDE3FGHIRWY/LB1 |
Departure
| Time | 2026-05-05 18:34 |
|---|---|
| Airport | Olbia Costa Smeralda Airport (LIEO) |
Arrival
| Time | 2026-05-05 19:49 |
|---|---|
| Airport | Munich Airport (EDDM) |
| Time | Latitude | Longitude | Altitude | Speed | Heading |
|---|---|---|---|---|---|
| 2026-05-05 18:18 | 40.90273 | 9.51703 | 34 ft | 0 kts | 325° |
| 2026-05-05 18:20 | 40.90271 | 9.51705 | 34 ft | 2 kts | 325° |
| 2026-05-05 18:20 | 40.90256 | 9.51719 | 34 ft | 3 kts | 322° |
| 2026-05-05 18:21 | 40.90240 | 9.51736 | 33 ft | 3 kts | 313° |
| 2026-05-05 18:21 | 40.90229 | 9.51755 | 34 ft | 3 kts | 285° |
| 2026-05-05 18:21 | 40.90228 | 9.51773 | 33 ft | 1 kts | 238° |
| 2026-05-05 18:21 | 40.90229 | 9.51776 | 33 ft | 0 kts | 236° |
| 2026-05-05 18:26 | 40.90226 | 9.51769 | 34 ft | 3 kts | 236° |
| 2026-05-05 18:26 | 40.90210 | 9.51739 | 33 ft | 4 kts | 236° |
| 2026-05-05 18:26 | 40.90198 | 9.51716 | 34 ft | 3 kts | 235° |
| 2026-05-05 18:26 | 40.90174 | 9.51670 | 34 ft | 7 kts | 235° |
| 2026-05-05 18:27 | 40.90151 | 9.51627 | 34 ft | 5 kts | 236° |
| 2026-05-05 18:27 | 40.90144 | 9.51613 | 34 ft | 0 kts | 236° |
| 2026-05-05 18:28 | 40.90130 | 9.51585 | 34 ft | 11 kts | 236° |
| 2026-05-05 18:28 | 40.90077 | 9.51490 | 34 ft | 13 kts | 221° |
| 2026-05-05 18:28 | 40.90028 | 9.51499 | 34 ft | 0 kts | 148° |
| 2026-05-05 18:30 | 40.89971 | 9.51514 | 34 ft | 18 kts | 188° |
| 2026-05-05 18:30 | 40.89867 | 9.51372 | 34 ft | 28 kts | 235° |
| 2026-05-05 18:31 | 40.89753 | 9.51154 | 34 ft | 27 kts | 235° |
| 2026-05-05 18:31 | 40.89644 | 9.50947 | 33 ft | 28 kts | 235° |
| 2026-05-05 18:31 | 40.89531 | 9.50734 | 34 ft | 29 kts | 236° |
| 2026-05-05 18:31 | 40.89428 | 9.50535 | 33 ft | 14 kts | 235° |
| 2026-05-05 18:32 | 40.89387 | 9.50463 | 34 ft | 8 kts | 223° |
| 2026-05-05 18:32 | 40.89302 | 9.50455 | 34 ft | 18 kts | 148° |
| 2026-05-05 18:32 | 40.89267 | 9.50571 | 35 ft | 10 kts | 104° |
| 2026-05-05 18:32 | 40.89280 | 9.50635 | 34 ft | 7 kts | 53° |
| 2026-05-05 18:33 | 40.89292 | 9.50665 | 34 ft | 3 kts | 58° |
| 2026-05-05 18:33 | 40.89294 | 9.50668 | 34 ft | 0 kts | 56° |
| 2026-05-05 18:33 | 40.89412 | 9.50893 | 33 ft | 69 kts | 56° |
| 2026-05-05 18:33 | 40.89811 | 9.51655 | 33 ft | 131 kts | 56° |
| 2026-05-05 18:34 | 40.90416 | 9.52816 | 157 ft | 166 kts | 57° |
| 2026-05-05 18:34 | 40.91045 | 9.54062 | 848 ft | 163 kts | 56° |
| 2026-05-05 18:34 | 40.91696 | 9.55294 | 1490 ft | 164 kts | 56° |
| 2026-05-05 18:34 | 40.92370 | 9.56544 | 1981 ft | 176 kts | 55° |
| 2026-05-05 18:35 | 40.93106 | 9.57923 | 2321 ft | 195 kts | 56° |
| 2026-05-05 18:35 | 40.93923 | 9.59453 | 2673 ft | 214 kts | 56° |
| 2026-05-05 18:35 | 40.94830 | 9.61155 | 2934 ft | 239 kts | 56° |
| 2026-05-05 18:35 | 40.95813 | 9.63004 | 3566 ft | 249 kts | 56° |
| 2026-05-05 18:36 | 40.96823 | 9.64901 | 4372 ft | 255 kts | 56° |
| 2026-05-05 18:36 | 40.97853 | 9.66844 | 5139 ft | 261 kts | 56° |
| 2026-05-05 18:36 | 40.98899 | 9.68830 | 5917 ft | 267 kts | 57° |
| 2026-05-05 18:36 | 40.99962 | 9.70962 | 6417 ft | 285 kts | 58° |
| 2026-05-05 18:37 | 41.01040 | 9.73211 | 7144 ft | 292 kts | 59° |
| 2026-05-05 18:37 | 41.02134 | 9.75515 | 7908 ft | 298 kts | 59° |
| 2026-05-05 18:37 | 41.03229 | 9.77816 | 8747 ft | 301 kts | 58° |
| 2026-05-05 18:37 | 41.04352 | 9.80174 | 9567 ft | 305 kts | 58° |
| 2026-05-05 18:38 | 41.05495 | 9.82563 | 10278 ft | 312 kts | 58° |
| 2026-05-05 18:38 | 41.06703 | 9.85086 | 10510 ft | 336 kts | 58° |
| 2026-05-05 18:38 | 41.07992 | 9.87778 | 10814 ft | 355 kts | 58° |
| 2026-05-05 18:38 | 41.09334 | 9.90576 | 11408 ft | 363 kts | 58° |
| 2026-05-05 18:39 | 41.10696 | 9.93420 | 12118 ft | 367 kts | 58° |
| 2026-05-05 18:39 | 41.12072 | 9.96300 | 12809 ft | 372 kts | 58° |
| 2026-05-05 18:39 | 41.13462 | 9.99210 | 13535 ft | 376 kts | 58° |
| 2026-05-05 18:39 | 41.14852 | 10.02122 | 14154 ft | 381 kts | 58° |
| 2026-05-05 18:40 | 41.16274 | 10.05106 | 14759 ft | 385 kts | 58° |
| 2026-05-05 18:40 | 41.17709 | 10.08124 | 15363 ft | 389 kts | 58° |
| 2026-05-05 18:40 | 41.19254 | 10.11090 | 15953 ft | 393 kts | 49° |
| 2026-05-05 18:40 | 41.21296 | 10.13498 | 16536 ft | 395 kts | 31° |
| 2026-05-05 18:41 | 41.23783 | 10.15012 | 17114 ft | 395 kts | 12° |
| 2026-05-05 18:41 | 41.26489 | 10.15598 | 17708 ft | 395 kts | 4° |
| 2026-05-05 18:41 | 41.29236 | 10.16032 | 18296 ft | 399 kts | 3° |
| 2026-05-05 18:41 | 41.32005 | 10.16457 | 18812 ft | 402 kts | 3° |
| 2026-05-05 18:42 | 41.34760 | 10.16878 | 19337 ft | 406 kts | 3° |
| 2026-05-05 18:42 | 41.37573 | 10.17313 | 19872 ft | 409 kts | 3° |
| 2026-05-05 18:42 | 41.40409 | 10.17760 | 20413 ft | 412 kts | 3° |
| 2026-05-05 18:42 | 41.43258 | 10.18218 | 20949 ft | 415 kts | 3° |
| 2026-05-05 18:43 | 41.46136 | 10.18685 | 21486 ft | 417 kts | 3° |
| 2026-05-05 18:43 | 41.49022 | 10.19155 | 22020 ft | 420 kts | 3° |
| 2026-05-05 18:43 | 41.51936 | 10.19630 | 22540 ft | 423 kts | 3° |
| 2026-05-05 18:43 | 41.54865 | 10.20105 | 23068 ft | 425 kts | 3° |
| 2026-05-05 18:44 | 41.57816 | 10.20582 | 23584 ft | 427 kts | 3° |
| 2026-05-05 18:44 | 41.60722 | 10.21054 | 24028 ft | 428 kts | 3° |
| 2026-05-05 18:44 | 41.63687 | 10.21536 | 24412 ft | 431 kts | 2° |
| 2026-05-05 18:44 | 41.66678 | 10.22019 | 24782 ft | 434 kts | 2° |
| 2026-05-05 18:45 | 41.69682 | 10.22503 | 25133 ft | 437 kts | 2° |
| 2026-05-05 18:45 | 41.72709 | 10.22993 | 25479 ft | 440 kts | 2° |
| 2026-05-05 18:45 | 41.75757 | 10.23487 | 25814 ft | 443 kts | 2° |
| 2026-05-05 18:45 | 41.78827 | 10.23986 | 26139 ft | 446 kts | 2° |
| 2026-05-05 18:46 | 41.81918 | 10.24485 | 26467 ft | 449 kts | 1° |
| 2026-05-05 18:46 | 41.85037 | 10.24993 | 26789 ft | 452 kts | 1° |
| 2026-05-05 18:46 | 41.88169 | 10.25506 | 27116 ft | 455 kts | 1° |
| 2026-05-05 18:46 | 41.91314 | 10.26025 | 27435 ft | 458 kts | 1° |
| 2026-05-05 18:47 | 41.94445 | 10.26540 | 27747 ft | 460 kts | 1° |
| 2026-05-05 18:47 | 41.97631 | 10.27061 | 28097 ft | 463 kts | 1° |
| 2026-05-05 18:47 | 42.00835 | 10.27583 | 28408 ft | 465 kts | 1° |
| 2026-05-05 18:47 | 42.04053 | 10.28109 | 28720 ft | 467 kts | 0° |
| 2026-05-05 18:48 | 42.07294 | 10.28640 | 29014 ft | 470 kts | 0° |
| 2026-05-05 18:48 | 42.10541 | 10.29171 | 29300 ft | 472 kts | 0° |
| 2026-05-05 18:48 | 42.13812 | 10.29710 | 29581 ft | 474 kts | 0° |
| 2026-05-05 18:48 | 42.17094 | 10.30254 | 29881 ft | 476 kts | 0° |
| 2026-05-05 18:49 | 42.20387 | 10.30801 | 30147 ft | 478 kts | 0° |
| 2026-05-05 18:49 | 42.23686 | 10.31348 | 30366 ft | 480 kts | 0° |
| 2026-05-05 18:49 | 42.27007 | 10.31898 | 30580 ft | 481 kts | 0° |
| 2026-05-05 18:49 | 42.30297 | 10.32445 | 30786 ft | 483 kts | 0° |
| 2026-05-05 18:50 | 42.33638 | 10.33002 | 30992 ft | 484 kts | 0° |
| 2026-05-05 18:50 | 42.36982 | 10.33559 | 31223 ft | 485 kts | 0° |
| 2026-05-05 18:50 | 42.40332 | 10.34118 | 31504 ft | 485 kts | 0° |
| 2026-05-05 18:50 | 42.43676 | 10.34674 | 31783 ft | 484 kts | 0° |
| 2026-05-05 18:51 | 42.47018 | 10.35227 | 32053 ft | 484 kts | 0° |
| 2026-05-05 18:51 | 42.50366 | 10.35781 | 32324 ft | 484 kts | 0° |
| 2026-05-05 18:51 | 42.53702 | 10.36337 | 32593 ft | 484 kts | 0° |
| 2026-05-05 18:51 | 42.57046 | 10.36895 | 32904 ft | 483 kts | 0° |
| 2026-05-05 18:52 | 42.60379 | 10.37450 | 33200 ft | 483 kts | 0° |
| 2026-05-05 18:52 | 42.63709 | 10.38008 | 33482 ft | 482 kts | 0° |
| 2026-05-05 18:52 | 42.66997 | 10.38560 | 33756 ft | 482 kts | 360° |
| 2026-05-05 18:52 | 42.70325 | 10.39118 | 34018 ft | 482 kts | 360° |
| 2026-05-05 18:53 | 42.73657 | 10.39678 | 34269 ft | 482 kts | 0° |
| 2026-05-05 18:53 | 42.76974 | 10.40295 | 34548 ft | 482 kts | 1° |
| 2026-05-05 18:53 | 42.80295 | 10.40986 | 34808 ft | 482 kts | 2° |
| 2026-05-05 18:53 | 42.83597 | 10.41720 | 35070 ft | 481 kts | 2° |
| 2026-05-05 18:54 | 42.86900 | 10.42473 | 35328 ft | 480 kts | 2° |
| 2026-05-05 18:54 | 42.90183 | 10.43217 | 35574 ft | 478 kts | 2° |
| 2026-05-05 18:54 | 42.93466 | 10.43945 | 35801 ft | 477 kts | 2° |
| 2026-05-05 18:54 | 42.96744 | 10.44655 | 35968 ft | 476 kts | 2° |
| 2026-05-05 18:55 | 43.03221 | 10.46029 | 35998 ft | 473 kts | 1° |
| 2026-05-05 18:55 | 43.09724 | 10.47397 | 35998 ft | 473 kts | 1° |
| 2026-05-05 18:56 | 43.16226 | 10.48794 | 36010 ft | 473 kts | 2° |
| 2026-05-05 18:56 | 43.22726 | 10.50198 | 35998 ft | 473 kts | 2° |
| 2026-05-05 18:57 | 43.29233 | 10.51613 | 35998 ft | 474 kts | 2° |
| 2026-05-05 18:57 | 43.35575 | 10.52990 | 36016 ft | 474 kts | 1° |
| 2026-05-05 18:58 | 43.42049 | 10.54397 | 36004 ft | 474 kts | 1° |
| 2026-05-05 18:58 | 43.48479 | 10.55796 | 35999 ft | 474 kts | 2° |
| 2026-05-05 18:59 | 43.55003 | 10.57221 | 36013 ft | 475 kts | 2° |
| 2026-05-05 18:59 | 43.61524 | 10.58656 | 35987 ft | 474 kts | 2° |
| 2026-05-05 19:00 | 43.68023 | 10.60082 | 35992 ft | 473 kts | 2° |
| 2026-05-05 19:00 | 43.74346 | 10.61466 | 36012 ft | 472 kts | 2° |
| 2026-05-05 19:01 | 43.80835 | 10.62886 | 36011 ft | 472 kts | 2° |
| 2026-05-05 19:01 | 43.87328 | 10.64313 | 36019 ft | 472 kts | 2° |
| 2026-05-05 19:02 | 43.93640 | 10.65709 | 36056 ft | 473 kts | 2° |
| 2026-05-05 19:02 | 44.00129 | 10.67151 | 36057 ft | 473 kts | 2° |
| 2026-05-05 19:03 | 44.06365 | 10.68542 | 36070 ft | 473 kts | 2° |
| 2026-05-05 19:03 | 44.12817 | 10.69982 | 36096 ft | 473 kts | 2° |
| 2026-05-05 19:04 | 44.19321 | 10.71422 | 36071 ft | 474 kts | 2° |
| 2026-05-05 19:04 | 44.25824 | 10.72871 | 36064 ft | 475 kts | 2° |
| 2026-05-05 19:05 | 44.32353 | 10.74338 | 36057 ft | 475 kts | 2° |
| 2026-05-05 19:05 | 44.38886 | 10.75811 | 36053 ft | 476 kts | 2° |
| 2026-05-05 19:06 | 44.45430 | 10.77279 | 36050 ft | 476 kts | 2° |
| 2026-05-05 19:06 | 44.51927 | 10.78745 | 36062 ft | 476 kts | 2° |
| 2026-05-05 19:07 | 44.57403 | 10.79990 | 36050 ft | 476 kts | 2° |
| 2026-05-05 19:07 | 44.64934 | 10.81562 | 36041 ft | 474 kts | 0° |
| 2026-05-05 19:08 | 44.71518 | 10.82599 | 36051 ft | 473 kts | 359° |
| 2026-05-05 19:08 | 44.76951 | 10.83414 | 36041 ft | 473 kts | 359° |
| 2026-05-05 19:09 | 44.84556 | 10.84649 | 36034 ft | 473 kts | 360° |
| 2026-05-05 19:09 | 44.91101 | 10.85763 | 36030 ft | 474 kts | 0° |
| 2026-05-05 19:10 | 44.96319 | 10.86651 | 36018 ft | 474 kts | 0° |
| 2026-05-05 19:10 | 45.02837 | 10.87741 | 35976 ft | 474 kts | 360° |
| 2026-05-05 19:11 | 45.09376 | 10.88831 | 35969 ft | 474 kts | 0° |
| 2026-05-05 19:11 | 45.15719 | 10.89907 | 35959 ft | 473 kts | 0° |
| 2026-05-05 19:12 | 45.22260 | 10.91022 | 35958 ft | 473 kts | 0° |
| 2026-05-05 19:12 | 45.28615 | 10.92090 | 36026 ft | 473 kts | 0° |
| 2026-05-05 19:13 | 45.35304 | 10.93217 | 36013 ft | 473 kts | 0° |
| 2026-05-05 19:13 | 45.41837 | 10.94331 | 36010 ft | 473 kts | 0° |
| 2026-05-05 19:14 | 45.48289 | 10.95431 | 36026 ft | 473 kts | 1° |
| 2026-05-05 19:14 | 45.54773 | 10.96545 | 36043 ft | 473 kts | 1° |
| 2026-05-05 19:15 | 45.61310 | 10.97669 | 36000 ft | 473 kts | 1° |
| 2026-05-05 19:15 | 45.67817 | 10.98786 | 35999 ft | 474 kts | 1° |
| 2026-05-05 19:16 | 45.74317 | 10.99904 | 36009 ft | 474 kts | 1° |
| 2026-05-05 19:16 | 45.80804 | 11.01022 | 36003 ft | 474 kts | 1° |
| 2026-05-05 19:17 | 45.87198 | 11.02125 | 36021 ft | 474 kts | 1° |
| 2026-05-05 19:17 | 45.93678 | 11.03240 | 36018 ft | 474 kts | 1° |
| 2026-05-05 19:18 | 46.00199 | 11.04376 | 36023 ft | 474 kts | 1° |
| 2026-05-05 19:18 | 46.06863 | 11.05545 | 36040 ft | 474 kts | 2° |
| 2026-05-05 19:19 | 46.13491 | 11.06703 | 36042 ft | 474 kts | 2° |
| 2026-05-05 19:19 | 46.19880 | 11.07818 | 36045 ft | 474 kts | 2° |
| 2026-05-05 19:20 | 46.26441 | 11.08966 | 36053 ft | 475 kts | 2° |
| 2026-05-05 19:20 | 46.32977 | 11.10118 | 36055 ft | 475 kts | 2° |
| 2026-05-05 19:21 | 46.39291 | 11.11232 | 36057 ft | 475 kts | 2° |
| 2026-05-05 19:21 | 46.45857 | 11.12387 | 35995 ft | 476 kts | 2° |
| 2026-05-05 19:22 | 46.51990 | 11.13478 | 35979 ft | 476 kts | 2° |
| 2026-05-05 19:22 | 46.58538 | 11.14643 | 35967 ft | 476 kts | 2° |
| 2026-05-05 19:23 | 46.65255 | 11.15839 | 35969 ft | 477 kts | 3° |
| 2026-05-05 19:23 | 46.71659 | 11.16972 | 35964 ft | 477 kts | 3° |
| 2026-05-05 19:24 | 46.78420 | 11.18167 | 35955 ft | 477 kts | 3° |
| 2026-05-05 19:24 | 46.84923 | 11.19340 | 35776 ft | 479 kts | 3° |
| 2026-05-05 19:25 | 46.87955 | 11.19896 | 35198 ft | 480 kts | 3° |
| 2026-05-05 19:25 | 46.91261 | 11.20503 | 34585 ft | 479 kts | 3° |
| 2026-05-05 19:25 | 46.93446 | 11.20900 | 34176 ft | 478 kts | 3° |
| 2026-05-05 19:25 | 46.97718 | 11.21513 | 33332 ft | 477 kts | 360° |
| 2026-05-05 19:26 | 47.01012 | 11.21784 | 32647 ft | 472 kts | 358° |
| 2026-05-05 19:26 | 47.04113 | 11.21934 | 32026 ft | 469 kts | 357° |
| 2026-05-05 19:26 | 47.07494 | 11.22054 | 31370 ft | 466 kts | 357° |
| 2026-05-05 19:26 | 47.10728 | 11.22180 | 30723 ft | 463 kts | 357° |
| 2026-05-05 19:27 | 47.12857 | 11.22282 | 30323 ft | 462 kts | 357° |
| 2026-05-05 19:27 | 47.17077 | 11.22532 | 29430 ft | 460 kts | 358° |
| 2026-05-05 19:27 | 47.19191 | 11.22677 | 28972 ft | 459 kts | 358° |
| 2026-05-05 19:27 | 47.23334 | 11.22976 | 28086 ft | 456 kts | 358° |
| 2026-05-05 19:28 | 47.26491 | 11.23205 | 27457 ft | 454 kts | 358° |
| 2026-05-05 19:28 | 47.29651 | 11.23426 | 26801 ft | 452 kts | 359° |
| 2026-05-05 19:28 | 47.32781 | 11.23641 | 26165 ft | 450 kts | 358° |
| 2026-05-05 19:28 | 47.35826 | 11.23849 | 25548 ft | 448 kts | 359° |
| 2026-05-05 19:29 | 47.38932 | 11.24061 | 24936 ft | 445 kts | 359° |
| 2026-05-05 19:29 | 47.40936 | 11.24197 | 24543 ft | 444 kts | 359° |
| 2026-05-05 19:29 | 47.45050 | 11.24480 | 23763 ft | 440 kts | 359° |
| 2026-05-05 19:29 | 47.47060 | 11.24622 | 23358 ft | 434 kts | 359° |
| 2026-05-05 19:30 | 47.50053 | 11.24834 | 22365 ft | 427 kts | 359° |
| 2026-05-05 19:30 | 47.53785 | 11.25095 | 21205 ft | 418 kts | 359° |
| 2026-05-05 19:30 | 47.55731 | 11.25212 | 20748 ft | 411 kts | 358° |
| 2026-05-05 19:30 | 47.58709 | 11.25281 | 20312 ft | 393 kts | 356° |
| 2026-05-05 19:31 | 47.61397 | 11.25262 | 19858 ft | 380 kts | 356° |
| 2026-05-05 19:31 | 47.64007 | 11.25209 | 19388 ft | 370 kts | 355° |
| 2026-05-05 19:31 | 47.66542 | 11.25155 | 18946 ft | 359 kts | 355° |
| 2026-05-05 19:31 | 47.68183 | 11.25124 | 18667 ft | 355 kts | 356° |
| 2026-05-05 19:32 | 47.71396 | 11.25082 | 18087 ft | 356 kts | 358° |
| 2026-05-05 19:32 | 47.73036 | 11.25296 | 17631 ft | 362 kts | 9° |
| 2026-05-05 19:32 | 47.76021 | 11.27199 | 16944 ft | 366 kts | 36° |
| 2026-05-05 19:32 | 47.77286 | 11.28850 | 16648 ft | 366 kts | 44° |
| 2026-05-05 19:33 | 47.79082 | 11.31520 | 16195 ft | 364 kts | 45° |
| 2026-05-05 19:33 | 47.81425 | 11.35054 | 15666 ft | 361 kts | 45° |
| 2026-05-05 19:33 | 47.83176 | 11.37717 | 15280 ft | 359 kts | 45° |
| 2026-05-05 19:33 | 47.84914 | 11.40370 | 14879 ft | 357 kts | 45° |
| 2026-05-05 19:34 | 47.86632 | 11.42994 | 14507 ft | 354 kts | 45° |
| 2026-05-05 19:34 | 47.87771 | 11.44733 | 14260 ft | 353 kts | 45° |
| 2026-05-05 19:34 | 47.89455 | 11.47304 | 13877 ft | 351 kts | 45° |
| 2026-05-05 19:35 | 47.92810 | 11.52420 | 13115 ft | 345 kts | 45° |
| 2026-05-05 19:35 | 47.95020 | 11.55787 | 12577 ft | 341 kts | 45° |
| 2026-05-05 19:35 | 47.96137 | 11.57489 | 12293 ft | 340 kts | 45° |
| 2026-05-05 19:35 | 47.98285 | 11.60768 | 11750 ft | 337 kts | 45° |
| 2026-05-05 19:36 | 47.99367 | 11.62424 | 11511 ft | 335 kts | 45° |
| 2026-05-05 19:36 | 48.00993 | 11.64917 | 11263 ft | 335 kts | 45° |
| 2026-05-05 19:36 | 48.02534 | 11.67283 | 11026 ft | 334 kts | 46° |
| 2026-05-05 19:36 | 48.04151 | 11.69767 | 10851 ft | 333 kts | 46° |
| 2026-05-05 19:37 | 48.05686 | 11.72129 | 10797 ft | 331 kts | 45° |
| 2026-05-05 19:37 | 48.07292 | 11.74602 | 10361 ft | 330 kts | 45° |
| 2026-05-05 19:37 | 48.08822 | 11.76954 | 10224 ft | 318 kts | 45° |
| 2026-05-05 19:37 | 48.10330 | 11.79273 | 9809 ft | 306 kts | 45° |
| 2026-05-05 19:38 | 48.11784 | 11.81511 | 9200 ft | 302 kts | 45° |
| 2026-05-05 19:38 | 48.13238 | 11.83755 | 8549 ft | 298 kts | 45° |
| 2026-05-05 19:38 | 48.14545 | 11.85774 | 8056 ft | 298 kts | 45° |
| 2026-05-05 19:38 | 48.15979 | 11.87992 | 7695 ft | 294 kts | 45° |
| 2026-05-05 19:39 | 48.17163 | 11.89827 | 7288 ft | 292 kts | 44° |
| 2026-05-05 19:39 | 48.18570 | 11.92006 | 6861 ft | 291 kts | 44° |
| 2026-05-05 19:39 | 48.19969 | 11.94171 | 6482 ft | 288 kts | 44° |
| 2026-05-05 19:39 | 48.21352 | 11.96318 | 6082 ft | 284 kts | 44° |
| 2026-05-05 19:40 | 48.22697 | 11.98411 | 5508 ft | 283 kts | 44° |
| 2026-05-05 19:40 | 48.24037 | 12.00497 | 4908 ft | 281 kts | 43° |
| 2026-05-05 19:40 | 48.25384 | 12.02605 | 4290 ft | 279 kts | 46° |
| 2026-05-05 19:40 | 48.26480 | 12.04813 | 4045 ft | 265 kts | 56° |
| 2026-05-05 19:41 | 48.27308 | 12.07209 | 3997 ft | 251 kts | 65° |
| 2026-05-05 19:41 | 48.27851 | 12.09610 | 4010 ft | 238 kts | 73° |
| 2026-05-05 19:41 | 48.28145 | 12.11993 | 4001 ft | 241 kts | 82° |
| 2026-05-05 19:41 | 48.28312 | 12.14231 | 4003 ft | 241 kts | 81° |
| 2026-05-05 19:42 | 48.28535 | 12.16720 | 4002 ft | 240 kts | 72° |
| 2026-05-05 19:42 | 48.29337 | 12.18837 | 4008 ft | 232 kts | 38° |
| 2026-05-05 19:42 | 48.30687 | 12.19921 | 4009 ft | 221 kts | 6° |
| 2026-05-05 19:42 | 48.32207 | 12.20091 | 4007 ft | 218 kts | 356° |
| 2026-05-05 19:43 | 48.33696 | 12.20050 | 4001 ft | 210 kts | 348° |
| 2026-05-05 19:43 | 48.34996 | 12.19239 | 4007 ft | 201 kts | 321° |
| 2026-05-05 19:43 | 48.36000 | 12.17804 | 4008 ft | 198 kts | 305° |
| 2026-05-05 19:43 | 48.36662 | 12.16002 | 4000 ft | 197 kts | 289° |
| 2026-05-05 19:44 | 48.36933 | 12.13993 | 4007 ft | 198 kts | 273° |
| 2026-05-05 19:44 | 48.36833 | 12.11931 | 4011 ft | 198 kts | 264° |
| 2026-05-05 19:44 | 48.36682 | 12.09876 | 4011 ft | 197 kts | 265° |
| 2026-05-05 19:44 | 48.36532 | 12.07830 | 4011 ft | 197 kts | 264° |
| 2026-05-05 19:45 | 48.36383 | 12.05809 | 4008 ft | 197 kts | 264° |
| 2026-05-05 19:45 | 48.36232 | 12.03770 | 4000 ft | 192 kts | 264° |
| 2026-05-05 19:45 | 48.36089 | 12.01858 | 4035 ft | 175 kts | 264° |
| 2026-05-05 19:45 | 48.35958 | 12.00090 | 3967 ft | 169 kts | 264° |
| 2026-05-05 19:46 | 48.35828 | 11.98348 | 3794 ft | 166 kts | 265° |
| 2026-05-05 19:46 | 48.35699 | 11.96625 | 3583 ft | 165 kts | 264° |
| 2026-05-05 19:46 | 48.35571 | 11.94913 | 3385 ft | 165 kts | 265° |
| 2026-05-05 19:46 | 48.35443 | 11.93205 | 3175 ft | 164 kts | 265° |
| 2026-05-05 19:47 | 48.35318 | 11.91550 | 2959 ft | 158 kts | 264° |
| 2026-05-05 19:47 | 48.35200 | 11.89982 | 2755 ft | 145 kts | 264° |
| 2026-05-05 19:47 | 48.35091 | 11.88535 | 2596 ft | 138 kts | 264° |
| 2026-05-05 19:47 | 48.34982 | 11.87100 | 2382 ft | 139 kts | 264° |
| 2026-05-05 19:48 | 48.34876 | 11.85698 | 2210 ft | 141 kts | 264° |
| 2026-05-05 19:48 | 48.34765 | 11.84235 | 1992 ft | 136 kts | 263° |
| 2026-05-05 19:48 | 48.34657 | 11.82808 | 1843 ft | 138 kts | 264° |
| 2026-05-05 19:48 | 48.34551 | 11.81357 | 1678 ft | 139 kts | 263° |
| 2026-05-05 19:49 | 48.34440 | 11.79919 | 1502 ft | 135 kts | 263° |
| 2026-05-05 19:49 | 48.34350 | 11.78729 | 1487 ft | 99 kts | 264° |
| 2026-05-05 19:49 | 48.34310 | 11.78146 | 1485 ft | 32 kts | 272° |
| 2026-05-05 19:49 | 48.34352 | 11.77876 | 1476 ft | 20 kts | 291° |
| 2026-05-05 19:50 | 48.34381 | 11.77768 | 1480 ft | 11 kts | 293° |
| 2026-05-05 19:50 | 48.34420 | 11.77630 | 1479 ft | 18 kts | 293° |
| 2026-05-05 19:50 | 48.34443 | 11.77553 | 1475 ft | 5 kts | 295° |
| 2026-05-05 19:50 | 48.34456 | 11.77510 | 1476 ft | 4 kts | 295° |
| 2026-05-05 19:51 | 48.34473 | 11.77474 | 1475 ft | 8 kts | 315° |
| 2026-05-05 19:51 | 48.34550 | 11.77433 | 1484 ft | 11 kts | 352° |
| 2026-05-05 19:51 | 48.34616 | 11.77438 | 1481 ft | 9 kts | 26° |
| 2026-05-05 19:51 | 48.34635 | 11.77534 | 1485 ft | 12 kts | 85° |
| 2026-05-05 19:52 | 48.34647 | 11.77683 | 1480 ft | 8 kts | 83° |
| 2026-05-05 19:52 | 48.34652 | 11.77759 | 1475 ft | 6 kts | 84° |
| 2026-05-05 19:52 | 48.34657 | 11.77821 | 1485 ft | 5 kts | 83° |
| 2026-05-05 19:52 | 48.34665 | 11.77868 | 1485 ft | 4 kts | 63° |
| 2026-05-05 19:53 | 48.34683 | 11.77889 | 1485 ft | 3 kts | 25° |
| 2026-05-05 19:53 | 48.34698 | 11.77893 | 1485 ft | 2 kts | 5° |
| 2026-05-05 19:53 | 48.34718 | 11.77892 | 1481 ft | 6 kts | 355° |
| 2026-05-05 19:53 | 48.34768 | 11.77885 | 1475 ft | 7 kts | 354° |
| 2026-05-05 19:54 | 48.34814 | 11.77876 | 1476 ft | 0 kts | 353° |
| 2026-05-05 19:54 | 48.34820 | 11.77875 | 1479 ft | 4 kts | 353° |
| 2026-05-05 19:54 | 48.34875 | 11.77865 | 1481 ft | 12 kts | 353° |
| 2026-05-05 19:54 | 48.34952 | 11.77851 | 1485 ft | 10 kts | 353° |
| 2026-05-05 19:55 | 48.35019 | 11.77840 | 1480 ft | 9 kts | 353° |
| 2026-05-05 19:55 | 48.35075 | 11.77830 | 1473 ft | 7 kts | 353° |
| 2026-05-05 19:55 | 48.35122 | 11.77822 | 1480 ft | 6 kts | 354° |
| 2026-05-05 19:55 | 48.35176 | 11.77813 | 1485 ft | 8 kts | 353° |
| 2026-05-05 19:56 | 48.35211 | 11.77806 | 1483 ft | 3 kts | 353° |
| 2026-05-05 19:56 | 48.35228 | 11.77800 | 1488 ft | 3 kts | 337° |
| 2026-05-05 19:56 | 48.35233 | 11.77776 | 1492 ft | 1 kts | 258° |
| 2026-05-05 19:56 | 48.35227 | 11.77753 | 1482 ft | 4 kts | 253° |
| 2026-05-05 19:57 | 48.35225 | 11.77735 | 1478 ft | 1 kts | 261° |
| 2026-05-05 19:57 | 48.35223 | 11.77713 | 1483 ft | 2 kts | 263° |
| 2026-05-05 19:57 | 48.35222 | 11.77699 | 1478 ft | 0 kts | 263° |